Strona główna
METAR-TAF:

METAR-TAF

Lotnisko :

Chautauqua County/Jamestown Airport

Jamestown, Nowy Jork, Stany Zjednoczone

Szerokość geograficzna: 42-09N, Długość geograficzna: 079-16W, wysokość: 525 m

Aktualna obserwacja pogody

Raport powstał 41 minut temu, godzina 08:56 UTC
Wiatr 8 kt od północno-północny zachód
Temperatura 12°C
Wilgotność 82%
Ciśnienie 1018 hPa
Widzialność: 16.1 km
Zachmurzenie całkowite na wysokości 4000 ft

METAR: KJHW 070856Z AUTO 34008KT 10SM OVC040 12/09 A3005 RMK AO2 SLP174 T01170089 53006

czas: 05:37 (09:37 UTC)

Prognoza

Raport powstał 39 minut temu, godzina 08:58 UTC
Prognoza ważna od 07 godzina 09 UTC do 08 godzina 06 UTC
Wiatr 4 kt od północno-północny zachód
Widzialność: 10 km
Mało chmury na wysokości 3500 ft
Od 07 godzina 1300 UTC
Wiatr 4 kt od północ
Widzialność: 10 km
Mało chmury na wysokości 25000 ft
Od 08 godzina 0100 UTC
Wiatr kt od północ
Widzialność: 10 km
bezchmurnie

TAF: KJHW 070858Z 0709/0806 34004KT P6SM FEW035 FM071300 01004KT P6SM FEW250 FM080100 00000KT P6SM SKC

Obserwacja i prognoza pogody dla ponad 4000 lotnisk (raport METAR i TAF).

Dostępne stacje oznaczono żółtymi i czerwonymi punktami na mapie.

Najedź kursorem aby zobaczyć nazwę stacji.

Kliknij aby zobaczyć obserwacje i prognozy pogody.

Aby zmienić mapę: kliknij na zielony przycisk z czarnym krzyżykiem, aby powiększyć; na zielony przycisk z myślnikiem, aby pomniejszyć; na zielone strzałki, aby przejść do map sąsiednich.


METAR-TAF: